AirNav   Air Wisconsin pilot careers
 
 446 users online  

05MD Breezecroft Airport
Chestertown, Maryland, USA

GOING TO CHESTERTOWN?


FAA INFORMATION EFFECTIVE 23 MAY 2019

Location

FAA Identifier: 05MD
Lat/Long: 39-14-39.1877N / 076-11-55.2172W
39-14.653128N / 076-11.920287W
39.2442188 / -76.1986714
(estimated)
Elevation: 20 ft. / 6 m
Variation: 11W (2000)
From city: 8 miles W of CHESTERTOWN, MD
Time zone: UTC -4 (UTC -5 during Standard Time)
Zip code: 21620

Airport Operations

Airport use: Private use. Permission required prior to landing
Activation date: 12/2001
Control tower: no
ARTCC: WASHINGTON CENTER
FSS: LEESBURG FLIGHT SERVICE STATION
Attendance: UNATNDD
Wind indicator: yes
Segmented circle: no

Airport Communications

WX AWOS-3PT at MTN (11 nm NW): 124.925 (410-682-8848)
WX AWOS-3 at W29 (17 nm S): 120.575 (410-643-8795)

Nearby radio navigation aids

VOR radial/distance  VOR name  Freq  Var
BALr089/21.9BALTIMORE VORTAC115.1011W
ENOr280/31.7SMYRNA VORTAC111.4009W
DQOr236/37.8DUPONT VORTAC114.0010W
EMIr121/39.2WESTMINSTER VORTAC117.9008W

 
NDB name  Hdg/Dist  Freq  Var  ID
ELLICOTT107/27.037111WFND ..-. -. -..

Airport Services

Runway Information

Runway 18/36

Dimensions: 2700 x 80 ft. / 823 x 24 m
Surface: turf
RUNWAY 18  RUNWAY 36
Latitude: 39-14.874167N39-14.432090N
Longitude: 076-11.951667W076-11.888905W
Traffic pattern: leftleft
Displaced threshold: 500 ft.no
Obstructions: 50 ft. trees40 ft. pline

Airport Ownership and Management from official FAA records

Ownership: Privately-owned
Owner: FREDERICK T. LOHR
9860 BREEZECROFT LN.
CHESTERTOWN, MD 21620
Phone 410-778-1226
Manager: FREDERICK T. LOHR
9860 BREEZECROFT LN.
CHESTERTOWN, MD 21620
Phone 410-778-1226

Airport Operational Statistics

Aircraft based on the field: 1
Single engine airplanes: 1
    

Additional Remarks

FOR CD CTC POTOMAC APCH AT 866-429-5882.

Instrument Procedures

There are no published instrument procedures at 05MD.

Some nearby airports with instrument procedures:

KEDG - Weide Army Heliport (Aberdeen Proving Ground) (10 nm NW)
KMTN - Martin State Airport (11 nm NW)
KAPG - Phillips Army Airfield (13 nm N)
W29 - Bay Bridge Airport (17 nm S)
0W3 - Harford County Airport (19 nm N)
 
Loc | Ops | Rwys | IFR | FBO | Links
Com | Nav | Svcs | Stats | Notes
Area around 05MD (Breezecroft Airport)
 
Road maps at: MapQuest Bing Google
 
Aerial photo
No photo
 
Sectional chart

 
Airport distance calculator
Flying to Breezecroft Airport? Find the distance to fly.

From to 05MD

Sunrise and sunset
Times for 25-May-2019
 Local
(UTC-4)
 Zulu
(UTC)
Morning civil twilight05:1409:14
Sunrise05:4509:45
Sunset20:1900:19
Evening civil twilight20:5000:50

Current date and time
Zulu (UTC)  25-May-2019 10:39:00
Local (UTC-4)  25-May-2019 06:39:00
 
METAR
KMTN 
11nm NW 
250945Z 08005KT 10SM OVC080 19/12 A3019 RMK FIRST
KAPG 
15nm NE 
242346Z 24005KT 7SM SCT120 BKN200 25/10 A3006
KW29 
17nm S 
251020Z AUTO 13007KT 10SM OVC075 18/13 A3019 RMK AO2
KDMH 
20nm W 
250954Z AUTO 19/11 A3019 RMK AO1 SLP221 T01940111
TAF
KMTN 
11nm NW 
250559Z 2506/2606 06004KT P6SM SCT070 BKN250 FM251000 09004KT P6SM SCT060 BKN120 FM251200 15007KT P6SM SCT040 BKN080 FM251900 16010G20KT P6SM FEW040 BKN110 FM260300 17009KT P6SM SCT025 BKN140 AMD NOT SKED
NOTAMs
Click for the latest NOTAMs
NOTAMs are issued by the DoD/FAA and will open in a separate window not controlled by AirNav.

 

 
 

Would you like to see your business listed on this page?

 If your business provides an interesting product or service to pilots, flight crews, aircraft, or users of the Breezecroft Airport, you should consider listing it here.  To start the listing process, click on the button below
 
Add a business
 

Other Pages about Breezecroft Airport

Update a link
 
Copyright © AirNav, LLC. All rights reserved. Privacy Policy  Contact